Terminal Aerodrome Forecast
Issued by NWS Lake Charles, LA

Home | Current Version | Previous Version | Text Only | Print | Product List | Glossary On
Versions: 1 2 3 4 5 6 7 8 9 10 11 12 13 14 15 16 17
000
FTUS44 KLCH 252300
TAFARA
TAF
KARA 252328Z 2600/2624 VRB03KT P6SM VCSH SCT070 BKN110
     FM260100 22003KT P6SM FEW110
     FM261400 26007KT P6SM SCT025
     FM261800 23009KT P6SM VCTS SCT035CB=

USA.gov is the U.S. government's official web portal to all federal, state and local government web resources and services.